Time;durP1;ratioP1;P1;durP2;ratioP2;P2;SDS_P1;SDS_P2;PMS_P1;PMS_P2;Temp;Humidity;BMP_temperature;BMP_pressure;BME280_temperature;BME280_humidity;BME280_pressure;Samples;Min_cycle;Max_cycle;Signal;HPM_P1;HPM_P2
2023/12/14 00:00:12;;;;;;;26.00;12.50;;;;;;;8.52;100.00;98888.28;6037882;23;20049;-85
2023/12/14 00:02:39;;;;;;;25.73;12.63;;;;;;;8.52;100.00;98885.63;6061345;23;20589;-85
2023/12/14 00:05:06;;;;;;;21.80;12.88;;;;;;;8.55;100.00;98885.34;6061752;23;20022;-85
2023/12/14 00:07:33;;;;;;;27.30;13.30;;;;;;;8.57;100.00;98887.84;6061908;23;20026;-85
2023/12/14 00:10:03;;;;;;;28.05;13.90;;;;;;;8.55;100.00;98892.44;6110225;23;20331;-85
2023/12/14 00:12:30;;;;;;;24.00;13.40;;;;;;;8.56;100.00;98892.31;6085251;23;20026;-85
2023/12/14 00:14:56;;;;;;;31.00;13.65;;;;;;;8.56;100.00;98891.47;6038433;23;20023;-85
2023/12/14 00:17:25;;;;;;;23.98;11.43;;;;;;;8.56;100.00;98904.72;6134833;23;20089;-86
2023/12/14 00:19:52;;;;;;;24.10;12.15;;;;;;;8.56;100.00;98912.66;6061363;23;20034;-85
2023/12/14 00:22:19;;;;;;;23.25;12.57;;;;;;;8.57;100.00;98916.94;6037560;23;20018;-85
2023/12/14 00:24:46;;;;;;;28.48;12.30;;;;;;;8.57;100.00;98916.94;6062330;23;20018;-85
2023/12/14 00:27:13;;;;;;;23.98;12.13;;;;;;;8.56;100.00;98913.47;6062829;23;22377;-85
2023/12/14 00:29:40;;;;;;;24.52;11.73;;;;;;;8.55;100.00;98916.25;6109703;23;20026;-85
2023/12/14 00:32:06;;;;;;;19.23;10.82;;;;;;;8.54;100.00;98918.06;6084816;23;20043;-85
2023/12/14 00:34:33;;;;;;;18.85;10.63;;;;;;;8.53;100.00;98923.53;6038716;23;20057;-85
2023/12/14 00:37:00;;;;;;;22.27;11.98;;;;;;;8.53;100.00;98921.72;6061929;23;20022;-85
2023/12/14 00:39:27;;;;;;;27.02;12.40;;;;;;;8.53;100.00;98927.00;6084880;23;20032;-86
2023/12/14 00:41:54;;;;;;;21.75;11.40;;;;;;;8.55;100.00;98927.69;6086122;23;20015;-85
2023/12/14 00:44:21;;;;;;;25.15;12.18;;;;;;;8.54;100.00;98928.66;6085549;23;20049;-85
2023/12/14 00:46:47;;;;;;;21.45;11.30;;;;;;;8.55;100.00;98921.53;6109846;23;20030;-87
2023/12/14 00:49:14;;;;;;;21.55;10.15;;;;;;;8.56;100.00;98928.53;6109177;23;20055;-85
2023/12/14 00:51:41;;;;;;;28.77;11.15;;;;;;;8.54;100.00;98931.28;6109629;23;20023;-85
2023/12/14 00:54:08;;;;;;;22.00;10.23;;;;;;;8.57;100.00;98932.81;6060844;23;20089;-86
2023/12/14 00:56:35;;;;;;;28.85;12.55;;;;;;;8.58;100.00;98942.44;6038316;23;20498;-86
2023/12/14 00:59:02;;;;;;;23.08;11.77;;;;;;;8.59;100.00;98946.75;6108803;23;20459;-85
2023/12/14 01:01:29;;;;;;;22.30;10.68;;;;;;;8.59;100.00;98954.69;6109722;23;20041;-85
2023/12/14 01:03:56;;;;;;;23.67;11.30;;;;;;;8.57;100.00;98956.63;6085117;23;20459;-86
2023/12/14 01:06:23;;;;;;;22.02;11.27;;;;;;;8.57;100.00;98959.28;6108665;23;20757;-86
2023/12/14 01:09:05;;;;;;;22.52;11.80;;;;;;;8.51;100.00;98973.94;6059725;23;20725;-86
2023/12/14 01:11:32;;;;;;;28.85;12.60;;;;;;;8.54;100.00;98976.28;6079817;23;20034;-90
2023/12/14 01:13:58;;;;;;;29.50;12.63;;;;;;;8.53;100.00;98976.44;6061714;23;20034;-91
2023/12/14 01:16:27;;;;;;;30.13;14.25;;;;;;;8.54;100.00;98978.94;6086547;23;20026;-91
2023/12/14 01:18:54;;;;;;;29.50;12.35;;;;;;;8.53;100.00;98982.56;6135345;23;20037;-91
2023/12/14 01:22:07;;;;;;;22.42;11.48;;;;;;;8.47;100.00;98999.84;6085974;23;20030;-90
2023/12/14 01:24:34;;;;;;;25.52;11.43;;;;;;;8.52;100.00;99002.03;6130767;23;20094;-87
2023/12/14 01:27:01;;;;;;;23.80;10.63;;;;;;;8.51;100.00;99000.38;6038643;23;20022;-90
2023/12/14 01:29:27;;;;;;;28.35;11.80;;;;;;;8.50;100.00;99003.16;6086271;23;20349;-90
2023/12/14 01:31:54;;;;;;;23.17;11.20;;;;;;;8.48;100.00;99009.44;6110843;23;20018;-91
2023/12/14 01:34:21;;;;;;;21.58;10.55;;;;;;;8.50;100.00;99022.53;6061693;23;20032;-91
2023/12/14 01:36:48;;;;;;;22.67;11.20;;;;;;;8.48;100.00;99016.56;6062765;23;20384;-91
2023/12/14 01:39:15;;;;;;;28.65;11.50;;;;;;;8.48;100.00;99022.69;6062105;23;20014;-91
2023/12/14 01:41:41;;;;;;;23.92;11.02;;;;;;;8.47;100.00;99023.66;6109590;23;20097;-90
2023/12/14 01:44:08;;;;;;;21.73;10.98;;;;;;;8.48;100.00;99029.78;6132937;23;20103;-89
2023/12/14 01:46:35;;;;;;;24.88;11.88;;;;;;;8.45;100.00;99025.59;6062129;23;20102;-89
2023/12/14 01:49:02;;;;;;;23.30;11.20;;;;;;;8.51;100.00;99044.53;6084828;23;20018;-90
2023/12/14 01:51:29;;;;;;;28.40;11.27;;;;;;;8.49;100.00;99047.31;6062261;23;20018;-89
2023/12/14 01:53:56;;;;;;;23.20;10.82;;;;;;;8.50;100.00;99042.84;6085554;23;20072;-90
2023/12/14 01:56:22;;;;;;;22.52;11.45;;;;;;;8.48;100.00;99043.84;6109161;23;20451;-89
2023/12/14 01:58:49;;;;;;;23.88;11.93;;;;;;;8.48;100.00;99051.78;6109813;23;20030;-90
2023/12/14 02:01:34;;;;;;;24.38;11.48;;;;;;;8.47;100.00;99062.50;6083603;23;20328;-89
2023/12/14 02:04:01;;;;;;;24.77;11.35;;;;;;;8.49;100.00;99060.53;6061649;23;20030;-90
2023/12/14 02:06:28;;;;;;;25.38;11.40;;;;;;;8.50;100.00;99066.66;6134598;23;20030;-89
2023/12/14 02:08:55;;;;;;;23.52;10.30;;;;;;;8.50;100.00;99071.97;6085267;23;20391;-89
2023/12/14 02:11:21;;;;;;;29.77;12.20;;;;;;;8.48;100.00;99066.81;6085850;23;20021;-91
2023/12/14 02:13:49;;;;;;;24.50;11.80;;;;;;;8.46;100.00;99072.25;6084675;23;20029;-89
2023/12/14 02:16:16;;;;;;;27.80;11.93;;;;;;;8.47;100.00;99067.78;6084532;23;20022;-90
2023/12/14 02:18:43;;;;;;;26.48;12.00;;;;;;;8.48;100.00;99077.41;6061274;23;20097;-90
2023/12/14 02:21:10;;;;;;;31.58;12.25;;;;;;;8.48;100.00;99072.13;6108701;23;20037;-89
2023/12/14 02:23:47;;;;;;;28.45;12.23;;;;;;;8.46;100.00;99082.00;6085470;23;20026;-90
2023/12/14 02:26:13;;;;;;;32.08;13.38;;;;;;;8.49;100.00;99084.34;6109085;23;20240;-90
2023/12/14 02:28:40;;;;;;;25.13;11.35;;;;;;;8.48;100.00;99080.88;6084895;23;20031;-90
2023/12/14 02:31:07;;;;;;;29.17;12.68;;;;;;;8.50;100.00;99086.03;6109080;23;20387;-89
2023/12/14 02:33:34;;;;;;;25.33;11.88;;;;;;;8.51;100.00;99081.59;6085662;23;20042;-90
2023/12/14 02:36:03;;;;;;;27.75;12.88;;;;;;;8.51;100.00;99092.16;6084920;23;20346;-90
2023/12/14 02:38:29;;;;;;;31.48;12.75;;;;;;;8.51;100.00;99100.09;6108198;23;20093;-91
2023/12/14 02:40:56;;;;;;;27.95;12.15;;;;;;;8.53;100.00;99100.81;6109504;23;20347;-90
2023/12/14 02:43:23;;;;;;;25.92;11.30;;;;;;;8.51;100.00;99100.09;6084298;23;20041;-91
2023/12/14 02:45:50;;;;;;;23.42;11.32;;;;;;;8.50;100.00;99109.00;6061142;23;20131;-90
2023/12/14 02:48:17;;;;;;;25.48;12.02;;;;;;;8.47;100.00;99105.69;6109930;23;20026;-90
2023/12/14 02:50:44;;;;;;;28.25;11.80;;;;;;;8.48;100.00;99109.16;6084241;23;20029;-90
2023/12/14 02:53:11;;;;;;;28.92;12.45;;;;;;;8.51;100.00;99116.81;6085817;23;22870;-90
2023/12/14 02:55:37;;;;;;;33.10;13.25;;;;;;;8.50;100.00;99117.78;6061409;23;20045;-90
2023/12/14 02:58:04;;;;;;;26.08;12.75;;;;;;;8.51;100.00;99122.09;6108528;23;20081;-90
2023/12/14 03:00:31;;;;;;;34.97;13.45;;;;;;;8.52;100.00;99131.69;6036857;23;20400;-89
2023/12/14 03:02:58;;;;;;;26.67;13.25;;;;;;;8.53;100.00;99135.19;6061625;23;20108;-90
2023/12/14 03:05:25;;;;;;;31.63;12.45;;;;;;;8.48;100.00;99131.16;6037680;23;20455;-89
2023/12/14 03:07:52;;;;;;;28.95;13.27;;;;;;;8.50;100.00;99141.59;6036949;23;20021;-90
2023/12/14 03:10:19;;;;;;;32.85;12.98;;;;;;;8.52;100.00;99142.28;6108183;23;20600;-90
2023/12/14 03:12:45;;;;;;;37.25;13.63;;;;;;;8.52;100.00;99142.28;6084548;23;20026;-88
2023/12/14 03:15:12;;;;;;;31.77;13.55;;;;;;;8.53;100.00;99148.44;6085360;23;20018;-90
2023/12/14 03:17:39;;;;;;;33.95;13.77;;;;;;;8.53;100.00;99154.56;6086064;23;20510;-90
2023/12/14 03:20:07;;;;;;;29.23;12.93;;;;;;;8.54;100.00;99156.22;6060668;23;20026;-87
2023/12/14 03:22:34;;;;;;;29.98;12.80;;;;;;;8.53;100.00;99165.13;6086105;23;20014;-90
2023/12/14 03:25:01;;;;;;;32.72;13.88;;;;;;;8.53;100.00;99165.13;6059370;23;20458;-89
2023/12/14 03:27:28;;;;;;;28.13;14.20;;;;;;;8.54;100.00;99163.31;6084539;23;20102;-89
2023/12/14 03:29:54;;;;;;;30.38;14.23;;;;;;;8.54;100.00;99161.50;6085342;23;20022;-90
2023/12/14 03:32:21;;;;;;;36.80;15.93;;;;;;;8.54;100.00;99161.50;6037556;23;20057;-90
2023/12/14 03:34:48;;;;;;;34.40;14.20;;;;;;;8.51;100.00;99161.78;6087683;23;20022;-89
2023/12/14 03:37:15;;;;;;;33.63;15.00;;;;;;;8.54;100.00;99169.44;6110913;23;20018;-91
2023/12/14 03:39:42;;;;;;;38.00;15.73;;;;;;;8.54;100.00;99168.63;6087689;23;20089;-91
2023/12/14 03:42:08;;;;;;;38.97;16.73;;;;;;;8.57;100.00;99179.75;6063708;23;20040;-91
2023/12/14 03:44:35;;;;;;;43.35;16.75;;;;;;;8.55;100.00;99180.84;6111815;23;20331;-90
2023/12/14 03:47:02;;;;;;;29.67;14.35;;;;;;;8.52;100.00;99183.78;6063135;23;20022;-92
2023/12/14 03:49:29;;;;;;;39.85;15.57;;;;;;;8.55;100.00;99191.44;6087111;23;20026;-89
2023/12/14 03:51:56;;;;;;;34.80;14.35;;;;;;;8.54;100.00;99192.44;6038804;23;20403;-89
2023/12/14 03:54:23;;;;;;;36.35;16.65;;;;;;;8.51;100.00;99185.59;6062202;23;21419;-89
2023/12/14 03:56:50;;;;;;;42.58;16.80;;;;;;;8.53;100.00;99202.19;6062309;23;20038;-90
2023/12/14 03:59:17;;;;;;;44.03;16.27;;;;;;;8.55;100.00;99212.63;6062184;23;20069;-90
2023/12/14 04:01:43;;;;;;;35.38;15.70;;;;;;;8.54;100.00;99217.06;6063288;23;20010;-90
2023/12/14 04:04:10;;;;;;;37.78;16.23;;;;;;;8.51;100.00;99208.59;6049844;23;20354;-90
2023/12/14 04:06:37;;;;;;;38.25;16.95;;;;;;;8.51;100.00;99225.28;6038918;23;20026;-89
2023/12/14 04:09:04;;;;;;;43.95;16.50;;;;;;;8.50;100.00;99223.63;6062507;23;20018;-89
2023/12/14 04:11:31;;;;;;;38.05;16.60;;;;;;;8.51;100.00;99229.75;6085274;23;20027;-90
2023/12/14 04:13:58;;;;;;;42.60;17.27;;;;;;;8.51;100.00;99235.06;6086269;23;20098;-89
2023/12/14 04:16:25;;;;;;;41.22;16.92;;;;;;;8.51;100.00;99240.34;6063468;23;20018;-88
2023/12/14 04:18:52;;;;;;;44.65;18.58;;;;;;;8.50;100.00;99246.59;6086918;23;20026;-90
2023/12/14 04:21:19;;;;;;;38.00;17.05;;;;;;;8.48;100.00;99244.94;6110081;23;20330;-89
2023/12/14 04:23:46;;;;;;;40.45;17.10;;;;;;;8.50;100.00;99251.88;6087543;23;20403;-90
2023/12/14 04:26:14;;;;;;;41.20;16.23;;;;;;;8.47;100.00;99250.34;6112048;23;20046;-91
2023/12/14 04:28:43;;;;;;;36.90;17.38;;;;;;;8.47;100.00;99247.69;6096922;23;20113;-90
2023/12/14 04:31:11;;;;;;;43.22;17.92;;;;;;;8.45;100.00;99263.72;6084288;23;20033;-89
2023/12/14 04:33:38;;;;;;;40.90;20.00;;;;;;;8.44;100.00;99253.28;6088675;23;20029;-91
2023/12/14 04:36:06;;;;;;;39.63;18.58;;;;;;;8.44;100.00;99256.75;6062575;23;20045;-90
2023/12/14 04:38:33;;;;;;;35.00;16.67;;;;;;;8.46;100.00;99254.81;6110157;23;20034;-90
2023/12/14 04:41:00;;;;;;;43.33;18.17;;;;;;;8.47;100.00;99255.63;6086311;23;20105;-90
2023/12/14 04:43:29;;;;;;;43.17;16.63;;;;;;;8.45;100.00;99263.72;6085284;23;20086;-90
2023/12/14 04:45:56;;;;;;;43.10;17.60;;;;;;;8.46;100.00;99275.16;6110112;23;20041;-90
2023/12/14 04:48:23;;;;;;;43.40;17.88;;;;;;;8.45;100.00;99278.78;6086592;23;20320;-90
2023/12/14 04:50:50;;;;;;;37.72;17.08;;;;;;;8.42;100.00;99268.44;6038062;23;20030;-91
2023/12/14 04:53:17;;;;;;;41.67;17.17;;;;;;;8.42;100.00;99271.09;6109919;23;20030;-90
2023/12/14 04:55:44;;;;;;;35.88;17.10;;;;;;;8.43;100.00;99291.28;6086193;23;20403;-86
2023/12/14 04:58:12;;;;;;;35.35;15.80;;;;;;;8.42;100.00;99292.25;6085701;23;20411;-88
2023/12/14 05:00:39;;;;;;;38.40;15.70;;;;;;;8.40;100.00;99291.56;6055887;23;20773;-88
2023/12/14 05:03:05;;;;;;;38.38;15.85;;;;;;;8.39;100.00;99293.34;6109771;23;20350;-89
2023/12/14 05:05:32;;;;;;;37.47;17.00;;;;;;;8.38;100.00;99296.97;6049451;23;20385;-90
2023/12/14 05:07:59;;;;;;;35.63;16.02;;;;;;;8.37;100.00;99299.72;6096549;23;20455;-90
2023/12/14 05:10:26;;;;;;;37.75;17.17;;;;;;;8.35;100.00;99294.59;6104391;23;20030;-92
2023/12/14 05:12:53;;;;;;;38.35;16.08;;;;;;;8.34;100.00;99310.56;6085146;23;20089;-90
2023/12/14 05:15:19;;;;;;;36.72;15.38;;;;;;;8.34;100.00;99321.16;6048421;23;20046;-88
2023/12/14 05:17:46;;;;;;;41.53;15.85;;;;;;;8.33;100.00;99322.97;6110613;23;20038;-91
2023/12/14 05:20:13;;;;;;;39.55;14.88;;;;;;;8.32;100.00;99329.25;6062609;23;20081;-91
2023/12/14 05:22:40;;;;;;;33.88;15.38;;;;;;;8.31;100.00;99329.38;6087161;23;21452;-91
2023/12/14 05:25:07;;;;;;;39.28;15.32;;;;;;;8.29;100.00;99341.88;6063444;23;20350;-90
2023/12/14 05:27:34;;;;;;;38.22;16.70;;;;;;;8.27;100.00;99334.94;6062545;23;20097;-88
2023/12/14 05:30:00;;;;;;;38.45;16.17;;;;;;;8.31;100.00;99345.25;6109513;23;20010;-89
2023/12/14 05:32:29;;;;;;;39.35;16.23;;;;;;;8.28;100.00;99354.28;6083907;23;20038;-90
2023/12/14 05:34:56;;;;;;;41.22;17.42;;;;;;;8.29;100.00;99363.88;6061820;23;20041;-90
2023/12/14 05:37:22;;;;;;;39.97;17.05;;;;;;;8.27;100.00;99369.31;6059640;23;21038;-85
2023/12/14 05:39:49;;;;;;;40.47;17.27;;;;;;;8.25;100.00;99367.78;6108104;23;20433;-85
2023/12/14 05:42:17;;;;;;;38.72;16.48;;;;;;;8.25;100.00;99371.25;6083945;23;20126;-85
2023/12/14 05:44:47;;;;;;;38.22;15.88;;;;;;;8.26;100.00;99372.09;6085074;23;20089;-85
2023/12/14 05:47:14;;;;;;;38.17;16.35;;;;;;;8.24;100.00;99376.66;6084325;23;20019;-85
2023/12/14 05:49:42;;;;;;;43.65;16.75;;;;;;;8.26;100.00;99380.84;6060980;23;20030;-85
2023/12/14 05:52:10;;;;;;;40.63;17.20;;;;;;;8.26;100.00;99385.31;6083852;23;20046;-85
2023/12/14 05:54:37;;;;;;;34.70;15.52;;;;;;;8.22;100.00;99387.41;6084137;23;20023;-85
2023/12/14 05:57:04;;;;;;;39.25;16.95;;;;;;;8.23;100.00;99393.50;6109718;23;20038;-85
2023/12/14 05:59:31;;;;;;;37.20;15.07;;;;;;;8.24;100.00;99395.19;6084020;23;20033;-85
2023/12/14 06:01:58;;;;;;;42.83;16.05;;;;;;;8.24;100.00;99390.75;6108572;23;20049;-85
2023/12/14 06:04:26;;;;;;;39.38;16.15;;;;;;;8.20;100.00;99399.91;6059054;23;20018;-85
2023/12/14 06:06:53;;;;;;;58.13;15.90;;;;;;;8.21;100.00;99398.09;6061006;23;20098;-85
2023/12/14 06:09:24;;;;;;;33.55;15.85;;;;;;;8.23;100.00;99404.94;6084095;23;20470;-86
2023/12/14 06:11:51;;;;;;;39.17;16.98;;;;;;;8.22;100.00;99407.72;6107974;23;20443;-85
2023/12/14 06:14:18;;;;;;;38.03;16.70;;;;;;;8.23;100.00;99412.03;6084407;23;20443;-85
2023/12/14 06:16:45;;;;;;;37.40;15.43;;;;;;;8.24;100.00;99421.63;6134373;23;20027;-85
2023/12/14 06:19:12;;;;;;;40.22;16.77;;;;;;;8.21;100.00;99422.72;6108314;23;20022;-85
2023/12/14 06:21:40;;;;;;;43.30;16.50;;;;;;;8.21;100.00;99428.03;6108282;23;20026;-85
2023/12/14 06:24:07;;;;;;;37.17;16.00;;;;;;;8.21;100.00;99438.59;6060728;23;20022;-86
2023/12/14 06:26:34;;;;;;;41.67;16.30;;;;;;;8.21;100.00;99438.59;6109057;23;20145;-86
2023/12/14 06:29:01;;;;;;;45.55;18.08;;;;;;;8.22;100.00;99442.09;6084304;23;20399;-85
2023/12/14 06:31:28;;;;;;;41.45;17.85;;;;;;;8.23;100.00;99449.06;6083779;23;20049;-85
2023/12/14 06:33:54;;;;;;;42.78;17.27;;;;;;;8.19;100.00;99443.22;6084624;23;20027;-85
2023/12/14 06:36:29;;;;;;;43.35;17.15;;;;;;;8.21;100.00;99451.81;6061475;23;20054;-85
2023/12/14 06:39:00;;;;;;;40.78;16.17;;;;;;;8.19;100.00;99461.72;6059698;23;20029;-86
2023/12/14 06:41:28;;;;;;;40.25;16.75;;;;;;;8.22;100.00;99464.09;6036376;23;20034;-85
2023/12/14 06:43:55;;;;;;;41.42;16.65;;;;;;;8.24;100.00;99472.75;6133670;23;20034;-85
2023/12/14 06:46:23;;;;;;;44.78;17.95;;;;;;;8.24;100.00;99466.59;6109013;23;20041;-86
2023/12/14 06:48:49;;;;;;;36.65;15.90;;;;;;;8.23;100.00;99479.00;6059292;23;20106;-85
2023/12/14 06:51:16;;;;;;;40.67;16.33;;;;;;;8.23;100.00;99483.44;6035138;23;20526;-85
2023/12/14 06:53:43;;;;;;;43.33;17.70;;;;;;;8.24;100.00;99485.97;6084718;23;20049;-85
2023/12/14 06:56:10;;;;;;;41.40;17.23;;;;;;;8.24;100.00;99495.69;6083629;23;20085;-85
2023/12/14 06:58:39;;;;;;;46.30;17.17;;;;;;;8.24;100.00;99500.97;6084046;23;20019;-85
2023/12/14 07:01:07;;;;;;;47.13;17.88;;;;;;;8.24;100.00;99501.84;6083473;23;20336;-85
2023/12/14 07:03:33;;;;;;;43.00;17.10;;;;;;;8.21;100.00;99491.50;6060653;23;20065;-86
2023/12/14 07:06:00;;;;;;;36.55;15.75;;;;;;;8.23;100.00;99501.97;6083928;23;20041;-86
2023/12/14 07:08:28;;;;;;;41.38;17.20;;;;;;;8.24;100.00;99506.28;6084837;23;20355;-85
2023/12/14 07:10:55;;;;;;;42.40;17.10;;;;;;;8.23;100.00;99513.38;6107257;23;20023;-86
2023/12/14 07:13:22;;;;;;;47.67;18.30;;;;;;;8.22;100.00;99511.72;6036439;23;20022;-86
2023/12/14 07:15:49;;;;;;;39.35;16.20;;;;;;;8.21;100.00;99520.59;6133322;23;20010;-85
2023/12/14 07:18:15;;;;;;;41.65;17.42;;;;;;;8.18;100.00;99520.03;6107451;23;20761;-86
2023/12/14 07:20:42;;;;;;;49.72;20.13;;;;;;;8.17;100.00;99532.41;6132746;23;20026;-85
2023/12/14 07:23:09;;;;;;;45.90;19.85;;;;;;;8.19;100.00;99542.84;6083593;23;20458;-85
2023/12/14 07:25:36;;;;;;;47.72;19.17;;;;;;;8.21;100.00;99546.22;6084544;23;20089;-85
2023/12/14 07:28:03;;;;;;;45.10;18.27;;;;;;;8.19;100.00;99549.00;6060595;23;20010;-85
2023/12/14 07:30:30;;;;;;;51.63;17.42;;;;;;;8.18;100.00;99544.66;6059528;23;20023;-85
2023/12/14 07:32:57;;;;;;;40.75;17.27;;;;;;;8.17;100.00;99544.81;6083772;23;20026;-85
2023/12/14 07:35:24;;;;;;;45.70;19.42;;;;;;;8.15;100.00;99546.72;6083728;23;20022;-85
2023/12/14 07:37:51;;;;;;;47.72;18.98;;;;;;;8.16;100.00;99543.09;6084102;23;20884;-85
2023/12/14 07:40:18;;;;;;;45.42;18.45;;;;;;;8.19;100.00;99543.72;6059486;23;20054;-86
2023/12/14 07:42:45;;;;;;;43.97;18.52;;;;;;;8.15;100.00;99544.09;6109502;23;20049;-85
2023/12/14 07:45:12;;;;;;;47.67;20.33;;;;;;;8.15;100.00;99552.84;6107494;23;20027;-86
2023/12/14 07:47:38;;;;;;;46.80;18.30;;;;;;;8.20;100.00;99560.41;6060558;23;20390;-86
2023/12/14 07:50:06;;;;;;;49.70;18.60;;;;;;;8.22;100.00;99572.53;6059167;23;20023;-85
2023/12/14 07:52:32;;;;;;;44.22;18.88;;;;;;;8.19;100.00;99582.53;6083663;23;20018;-85
2023/12/14 07:55:00;;;;;;;44.33;17.27;;;;;;;8.17;100.00;99606.47;6084273;23;20045;-86
2023/12/14 07:57:27;;;;;;;49.83;18.52;;;;;;;8.11;100.00;99622.00;6084762;23;20026;-86
2023/12/14 07:59:53;;;;;;;56.00;20.73;;;;;;;8.02;100.00;99628.88;6083304;23;20521;-86
2023/12/14 08:02:20;;;;;;;54.70;19.33;;;;;;;7.98;100.00;99628.28;6083242;23;20054;-86
2023/12/14 08:04:47;;;;;;;49.42;20.48;;;;;;;8.01;100.00;99633.34;6037264;23;20023;-85
2023/12/14 08:07:14;;;;;;;47.72;18.90;;;;;;;8.05;100.00;99633.91;6083228;23;20022;-85
2023/12/14 08:09:41;;;;;;;44.35;17.50;;;;;;;8.09;100.00;99635.34;6108716;23;20025;-86
2023/12/14 08:12:08;;;;;;;47.65;18.40;;;;;;;8.11;100.00;99649.28;6059651;23;20061;-85
2023/12/14 08:14:37;;;;;;;51.28;18.58;;;;;;;8.16;100.00;99652.38;6108170;23;20029;-86
2023/12/14 08:17:04;;;;;;;51.05;18.95;;;;;;;8.17;100.00;99656.72;6082667;23;20028;-86
2023/12/14 08:19:32;;;;;;;46.72;19.65;;;;;;;8.19;100.00;99665.38;6086277;23;20022;-86
2023/12/14 08:21:58;;;;;;;45.63;18.45;;;;;;;8.23;100.00;99669.44;6085250;23;20059;-85
2023/12/14 08:24:25;;;;;;;45.65;18.02;;;;;;;8.24;100.00;99667.63;6108986;23;20045;-86
2023/12/14 08:26:52;;;;;;;48.00;17.80;;;;;;;8.25;100.00;99667.50;6062726;23;20015;-86
2023/12/14 08:29:19;;;;;;;52.70;20.35;;;;;;;8.27;100.00;99675.34;6085217;23;20109;-85
2023/12/14 08:31:46;;;;;;;54.95;21.67;;;;;;;8.30;100.00;99680.38;6085354;23;20028;-85
2023/12/14 08:34:13;;;;;;;51.75;20.00;;;;;;;8.30;100.00;99680.38;6109721;23;20015;-85
2023/12/14 08:36:40;;;;;;;49.15;18.45;;;;;;;8.33;100.00;99687.22;6061023;23;20342;-86
2023/12/14 08:39:07;;;;;;;50.40;18.55;;;;;;;8.36;100.00;99693.09;6061386;23;21392;-86
2023/12/14 08:41:34;;;;;;;46.90;17.98;;;;;;;8.37;100.00;99686.84;6062030;23;20026;-85
2023/12/14 08:44:01;;;;;;;50.45;17.90;;;;;;;8.39;100.00;99692.88;6061366;23;20026;-86
2023/12/14 08:46:28;;;;;;;46.33;18.35;;;;;;;8.40;100.00;99699.84;6085428;23;20399;-86
2023/12/14 08:48:55;;;;;;;42.88;15.93;;;;;;;8.43;100.00;99704.06;6061642;23;20029;-86
2023/12/14 08:51:24;;;;;;;46.78;18.23;;;;;;;8.42;100.00;99711.16;6059966;23;20461;-85
2023/12/14 08:53:51;;;;;;;43.85;18.05;;;;;;;8.41;100.00;99712.09;6085443;23;20022;-86
2023/12/14 08:56:17;;;;;;;46.22;17.92;;;;;;;8.44;100.00;99714.50;6061388;23;20033;-85
2023/12/14 08:58:45;;;;;;;43.80;16.25;;;;;;;8.45;100.00;99713.56;6109108;23;20354;-86
2023/12/14 09:01:19;;;;;;;37.08;17.20;;;;;;;8.45;100.00;99718.00;6060091;23;20026;-85
2023/12/14 09:03:47;;;;;;;43.17;17.25;;;;;;;8.46;100.00;99725.81;6061208;23;20081;-86
2023/12/14 09:06:14;;;;;;;43.50;17.33;;;;;;;8.50;100.00;99733.47;6108400;23;20026;-86
2023/12/14 09:08:41;;;;;;;41.72;16.65;;;;;;;8.51;100.00;99736.00;6109588;23;20332;-86
2023/12/14 09:11:08;;;;;;;42.00;15.65;;;;;;;8.53;100.00;99742.03;6060795;23;20454;-88
2023/12/14 09:13:35;;;;;;;34.70;13.55;;;;;;;8.55;100.00;99745.41;6084153;23;20023;-85
2023/12/14 09:16:02;;;;;;;32.90;13.10;;;;;;;8.57;100.00;99751.38;6083906;23;20079;-86
2023/12/14 09:18:29;;;;;;;33.80;13.75;;;;;;;8.59;100.00;99751.28;6108735;23;20030;-86
2023/12/14 09:20:56;;;;;;;32.42;12.77;;;;;;;8.59;100.00;99748.63;6109095;23;20038;-86
2023/12/14 09:23:22;;;;;;;30.40;12.35;;;;;;;8.60;100.00;99767.03;6085494;23;20027;-86
2023/12/14 09:25:49;;;;;;;31.67;12.85;;;;;;;8.60;100.00;99767.03;6108890;23;20641;-86
2023/12/14 09:28:16;;;;;;;30.15;11.80;;;;;;;8.63;100.00;99774.72;6085423;23;21433;-85
2023/12/14 09:30:44;;;;;;;29.25;12.23;;;;;;;8.64;100.00;99771.09;6059892;23;20026;-86
2023/12/14 09:33:11;;;;;;;42.65;15.73;;;;;;;8.65;100.00;99778.09;6108810;23;20026;-85
2023/12/14 09:35:38;;;;;;;35.95;14.40;;;;;;;8.66;100.00;99781.56;6084390;23;20070;-86
2023/12/14 09:38:06;;;;;;;44.28;16.10;;;;;;;8.66;100.00;99782.41;6110031;23;20346;-86
2023/12/14 09:40:34;;;;;;;46.20;15.52;;;;;;;8.68;100.00;99787.59;6059854;23;20029;-86
2023/12/14 09:43:01;;;;;;;45.15;17.42;;;;;;;8.66;100.00;99784.22;6060965;23;20022;-86
2023/12/14 09:45:31;;;;;;;40.30;15.15;;;;;;;8.67;100.00;99796.47;6061575;23;20026;-86
2023/12/14 09:47:59;;;;;;;38.95;15.57;;;;;;;8.68;100.00;99804.31;6037728;23;20342;-85
2023/12/14 09:50:26;;;;;;;41.47;16.63;;;;;;;8.70;100.00;99812.09;6107171;23;20359;-86
2023/12/14 09:52:53;;;;;;;42.38;15.35;;;;;;;8.69;100.00;99813.09;6036740;23;20097;-86
2023/12/14 09:55:20;;;;;;;36.63;14.98;;;;;;;8.72;100.00;99810.19;6108549;23;20022;-86
2023/12/14 09:57:47;;;;;;;43.35;15.10;;;;;;;8.73;100.00;99814.53;6061171;23;20466;-86
2023/12/14 10:00:32;;;;;;;43.05;16.45;;;;;;;8.69;100.00;99828.97;6107786;23;20026;-86
2023/12/14 10:03:22;;;;;;;36.47;14.35;;;;;;;8.71;100.00;99831.50;6109390;23;20052;-86
2023/12/14 10:05:50;;;;;;;40.30;14.80;;;;;;;8.74;100.00;99832.09;6108335;23;20712;-86
2023/12/14 10:08:17;;;;;;;36.40;15.45;;;;;;;8.74;100.00;99840.03;6109443;23;20022;-86
2023/12/14 10:10:47;;;;;;;41.60;15.25;;;;;;;8.74;100.00;99840.03;6107652;23;20490;-86
2023/12/14 10:13:14;;;;;;;41.17;15.75;;;;;;;8.76;100.00;99842.56;6037031;23;20015;-85
2023/12/14 10:15:44;;;;;;;33.95;13.68;;;;;;;8.77;100.00;99839.78;6132494;23;20028;-86
2023/12/14 10:18:11;;;;;;;36.83;13.90;;;;;;;8.76;100.00;99838.09;6083931;23;20062;-85
2023/12/14 10:20:38;;;;;;;32.60;13.60;;;;;;;8.78;100.00;99843.28;6083867;23;20093;-86
2023/12/14 10:23:06;;;;;;;33.00;13.73;;;;;;;8.82;100.00;99853.47;6085001;23;20018;-85
2023/12/14 10:25:35;;;;;;;33.78;13.80;;;;;;;8.82;100.00;99855.28;6059983;23;20018;-86
2023/12/14 10:28:03;;;;;;;33.80;12.02;;;;;;;8.82;100.00;99856.13;6109124;23;20473;-85
2023/12/14 10:30:30;;;;;;;31.20;12.85;;;;;;;8.84;100.00;99853.38;6059603;23;20077;-85
2023/12/14 10:33:01;;;;;;;31.77;13.15;;;;;;;8.81;100.00;99859.75;6084611;23;20034;-86
2023/12/14 10:35:28;;;;;;;35.70;14.45;;;;;;;8.84;100.00;99864.78;6084580;23;20018;-86
2023/12/14 10:37:55;;;;;;;34.22;15.15;;;;;;;8.83;100.00;99865.78;6108674;23;20073;-86
2023/12/14 10:40:23;;;;;;;40.78;15.55;;;;;;;8.78;100.00;99867.13;6085128;23;20026;-86
2023/12/14 10:42:50;;;;;;;37.63;15.40;;;;;;;8.78;100.00;99870.59;6133853;23;20022;-86
2023/12/14 10:45:19;;;;;;;38.65;15.48;;;;;;;8.80;100.00;99873.09;6108399;23;20551;-85
2023/12/14 10:47:50;;;;;;;38.27;15.27;;;;;;;8.82;100.00;99879.13;6084781;23;20045;-86
2023/12/14 10:50:18;;;;;;;34.63;13.98;;;;;;;8.83;100.00;99872.88;6036073;23;20030;-86
2023/12/14 10:52:45;;;;;;;36.33;14.57;;;;;;;8.84;100.00;99869.25;6106883;23;20105;-86
2023/12/14 10:55:25;;;;;;;42.72;14.90;;;;;;;8.81;100.00;99867.69;6083797;23;20450;-85
2023/12/14 10:57:53;;;;;;;37.00;15.90;;;;;;;8.86;100.00;99868.16;6060687;23;20050;-85
2023/12/14 11:00:20;;;;;;;40.55;15.25;;;;;;;8.88;100.00;99876.00;6083102;23;20023;-86
2023/12/14 11:02:47;;;;;;;37.53;14.32;;;;;;;8.91;100.00;99873.09;6060592;23;20030;-86
2023/12/14 11:05:16;;;;;;;35.63;13.38;;;;;;;8.91;100.00;99873.94;6084209;23;20072;-85
2023/12/14 11:07:46;;;;;;;38.35;15.48;;;;;;;8.93;100.00;99873.81;6060637;23;20026;-86
2023/12/14 11:10:14;;;;;;;41.05;16.20;;;;;;;8.96;100.00;99880.69;6083393;23;20042;-85
2023/12/14 11:12:59;;;;;;;37.05;14.60;;;;;;;8.91;100.00;99896.94;6060244;23;20035;-86
2023/12/14 11:15:33;;;;;;;37.08;14.50;;;;;;;8.93;100.00;99896.78;6059785;23;20130;-86
2023/12/14 11:18:12;;;;;;;35.55;15.65;;;;;;;8.89;100.00;99905.00;6084611;23;20398;-86